createdAt,value
2022-11-08T05:00:39.963Z,28.30
2022-11-08T05:03:09.287Z,29.70
2022-11-08T05:05:37.240Z,33.10
2022-11-08T05:08:05.895Z,35.60
2022-11-08T05:10:33.890Z,37.20
2022-11-08T05:13:01.854Z,36.90
2022-11-08T05:15:29.895Z,36.90
2022-11-08T05:17:57.832Z,37.90
2022-11-08T05:20:44.976Z,42.70
2022-11-08T05:23:25.101Z,45.40
2022-11-08T05:25:55.012Z,50.00
2022-11-08T05:28:23.278Z,54.70
2022-11-08T05:30:55.900Z,56.90
2022-11-08T05:33:24.174Z,57.90
2022-11-08T05:35:54.139Z,61.90
2022-11-08T05:38:22.221Z,66.20
2022-11-08T05:40:50.323Z,69.50
2022-11-08T05:43:18.592Z,74.80
2022-11-08T05:45:46.913Z,76.70
2022-11-08T05:48:15.160Z,80.20
2022-11-08T05:50:43.510Z,84.20
2022-11-08T05:53:13.019Z,89.30
2022-11-08T05:55:41.070Z,92.30
2022-11-08T05:58:09.605Z,94.40
2022-11-08T06:00:37.799Z,95.70
2022-11-08T06:03:07.465Z,97.30
2022-11-08T06:05:36.265Z,98.70
2022-11-08T06:08:04.516Z,99.90
2022-11-08T06:10:33.912Z,99.90
2022-11-08T06:13:02.028Z,99.90
2022-11-08T06:15:30.133Z,99.90
2022-11-08T06:18:02.761Z,99.90
2022-11-08T06:20:31.159Z,99.90
2022-11-08T06:22:59.151Z,99.90
2022-11-08T06:25:27.089Z,99.90
2022-11-08T06:27:56.426Z,99.90
2022-11-08T06:30:24.401Z,99.90
2022-11-08T06:32:52.484Z,99.90
2022-11-08T06:35:20.543Z,99.90
2022-11-08T06:37:48.641Z,99.90
2022-11-08T06:40:16.828Z,99.90
2022-11-08T06:42:44.851Z,99.90
2022-11-08T06:45:14.246Z,99.90
2022-11-08T06:47:42.190Z,99.90
2022-11-08T06:50:10.441Z,99.90
2022-11-08T06:52:38.475Z,99.90
2022-11-08T06:55:07.693Z,99.90
2022-11-08T06:57:35.691Z,99.90
2022-11-08T07:00:05.072Z,99.90
2022-11-08T07:02:34.556Z,99.90
2022-11-08T07:05:02.716Z,99.90
2022-11-08T07:07:30.748Z,99.80
2022-11-08T07:10:03.627Z,99.90
2022-11-08T07:12:32.753Z,99.60
2022-11-08T07:15:00.765Z,98.90
2022-11-08T07:17:28.731Z,98.10
2022-11-08T07:19:58.088Z,97.60
2022-11-08T07:22:26.821Z,97.30
2022-11-08T07:24:54.789Z,96.90
2022-11-08T07:27:22.859Z,96.50
2022-11-08T07:29:50.871Z,95.60
2022-11-08T07:32:18.876Z,94.50
2022-11-08T07:34:46.848Z,93.30
2022-11-08T07:37:16.291Z,91.90
2022-11-08T07:39:44.329Z,91.20
2022-11-08T07:42:12.326Z,86.40
2022-11-08T07:44:40.244Z,77.90
2022-11-08T07:47:08.234Z,70.60
2022-11-08T07:49:37.248Z,57.90
2022-11-08T07:52:05.589Z,47.20
2022-11-08T07:54:35.058Z,43.40
2022-11-08T07:57:03.141Z,42.20
2022-11-08T07:59:31.182Z,38.00
2022-11-08T08:01:59.240Z,32.90
2022-11-08T08:04:29.805Z,27.60
2022-11-08T08:06:59.737Z,17.00
2022-11-08T08:09:27.704Z,16.40
2022-11-08T08:11:57.135Z,9.10
2022-11-08T08:14:25.256Z,1.00
2022-11-08T08:16:53.288Z,1.00
2022-11-08T08:19:21.419Z,1.00
2022-11-08T08:21:49.514Z,1.00
2022-11-08T08:24:17.752Z,1.00
2022-11-08T08:26:45.730Z,1.00
2022-11-08T08:29:15.776Z,1.00
2022-11-08T08:31:43.742Z,1.00
2022-11-08T08:34:11.752Z,1.00
2022-11-08T08:36:39.894Z,1.00
2022-11-08T08:39:08.087Z,1.00
2022-11-08T08:41:36.126Z,1.00
2022-11-08T08:44:04.415Z,1.00
2022-11-08T08:46:33.761Z,1.00
2022-11-08T08:49:01.725Z,1.00
2022-11-08T08:51:29.748Z,1.00
2022-11-08T08:53:59.118Z,1.00
2022-11-08T08:56:27.142Z,1.00
2022-11-08T09:01:44.949Z,1.00
2022-11-08T09:04:13.304Z,1.00
2022-11-08T09:06:41.298Z,1.00
2022-11-08T09:09:09.574Z,1.00
2022-11-08T09:11:37.569Z,1.00
2022-11-08T09:14:05.505Z,1.00
2022-11-08T09:16:33.527Z,1.00
2022-11-08T09:19:02.832Z,1.00
2022-11-08T09:21:30.931Z,1.00
2022-11-08T09:23:58.964Z,1.00
2022-11-08T09:26:26.987Z,1.00
2022-11-08T09:28:54.946Z,1.00
2022-11-08T09:31:22.923Z,1.00
2022-11-08T09:33:52.153Z,1.00
2022-11-08T09:36:21.622Z,1.00
2022-11-08T09:38:49.674Z,1.00
2022-11-08T09:42:03.319Z,1.00
2022-11-08T09:45:07.808Z,1.00
2022-11-08T09:47:39.568Z,1.00
2022-11-08T09:50:18.735Z,1.00
2022-11-08T09:52:58.776Z,1.00
2022-11-08T09:55:37.479Z,1.00
2022-11-08T09:58:21.664Z,1.00
2022-11-08T10:00:52.211Z,1.00
2022-11-08T10:03:24.791Z,1.00
2022-11-08T10:06:19.880Z,1.00
2022-11-08T10:08:58.205Z,1.00
2022-11-08T10:11:47.177Z,1.00
2022-11-08T10:14:45.321Z,1.00
2022-11-08T10:17:44.970Z,1.00
2022-11-08T10:20:27.986Z,1.00
2022-11-08T10:23:11.125Z,1.00
2022-11-08T10:25:48.581Z,1.00
2022-11-08T10:28:20.116Z,1.00
2022-11-08T10:30:52.728Z,1.00
2022-11-08T10:33:28.896Z,1.00
2022-11-08T10:36:02.995Z,1.00
2022-11-08T10:38:40.626Z,1.00
2022-11-08T10:41:20.692Z,1.00
2022-11-08T10:43:57.869Z,1.00
2022-11-08T10:46:43.338Z,1.00
2022-11-08T10:49:21.989Z,1.00
2022-11-08T10:51:54.899Z,1.00
2022-11-08T10:54:47.898Z,1.00
2022-11-08T10:57:25.171Z,1.00
2022-11-08T10:59:54.779Z,1.00
2022-11-08T11:02:30.601Z,1.00
2022-11-08T11:05:22.666Z,1.00
2022-11-08T11:08:02.911Z,1.00
2022-11-08T11:10:34.185Z,1.00
2022-11-08T11:13:10.916Z,1.00
2022-11-08T11:15:45.506Z,1.00
2022-11-08T11:18:33.792Z,1.00
2022-11-08T11:21:07.788Z,1.00
2022-11-08T11:23:46.535Z,1.00
2022-11-08T11:26:30.920Z,1.00
2022-11-08T11:29:17.767Z,1.00
2022-11-08T11:31:49.472Z,1.00
2022-11-08T11:34:44.884Z,1.00
2022-11-08T11:37:23.605Z,1.00
2022-11-08T11:40:03.445Z,1.00
2022-11-08T11:42:46.993Z,1.00
2022-11-08T11:45:24.802Z,1.00
2022-11-08T11:47:56.458Z,1.00
2022-11-08T11:50:34.038Z,1.00
2022-11-08T11:53:06.949Z,1.00
2022-11-08T11:56:02.913Z,1.00
2022-11-08T11:59:09.304Z,1.00
2022-11-08T12:01:57.003Z,1.00
2022-11-08T12:04:58.322Z,1.00
2022-11-08T12:07:28.668Z,1.00
2022-11-08T12:10:11.533Z,1.00
2022-11-08T12:12:55.691Z,1.00
2022-11-08T12:15:33.365Z,1.00
2022-11-08T12:18:43.947Z,1.00
2022-11-08T12:21:16.377Z,1.00
2022-11-08T12:24:21.870Z,1.00
2022-11-08T12:27:01.530Z,1.00
2022-11-08T12:29:41.183Z,1.00
2022-11-08T12:32:28.344Z,1.00
2022-11-08T12:35:17.528Z,1.00
2022-11-08T12:38:04.056Z,1.00
2022-11-08T12:40:40.011Z,1.00
2022-11-08T12:43:29.332Z,1.00
2022-11-08T12:46:12.771Z,1.00
2022-11-08T12:49:00.207Z,1.00
2022-11-08T12:51:47.896Z,1.00
2022-11-08T12:54:26.279Z,1.00
2022-11-08T12:57:02.383Z,1.00
2022-11-08T12:59:37.903Z,1.00
2022-11-08T13:02:16.506Z,1.00
2022-11-08T13:04:56.889Z,1.00
2022-11-08T13:07:40.397Z,1.00
2022-11-08T13:10:32.911Z,1.00
2022-11-08T13:13:19.888Z,1.00
2022-11-08T13:16:14.582Z,1.00
2022-11-08T13:18:49.897Z,1.00
2022-11-08T13:21:41.967Z,1.00
2022-11-08T13:24:45.416Z,1.00
2022-11-08T13:27:35.614Z,1.00
2022-11-08T13:30:39.690Z,1.00
2022-11-08T13:33:22.634Z,1.00
2022-11-08T13:36:06.216Z,1.00
2022-11-08T13:38:49.318Z,1.00
2022-11-08T13:41:24.496Z,1.00
2022-11-08T13:43:56.069Z,1.00
2022-11-08T13:46:49.672Z,1.00
2022-11-08T13:49:22.516Z,1.00
2022-11-08T13:51:51.500Z,1.00
2022-11-08T13:54:51.833Z,1.00
2022-11-08T13:57:59.732Z,1.00
2022-11-08T14:00:46.305Z,1.00
2022-11-08T14:03:55.247Z,1.00
2022-11-08T14:06:34.357Z,1.00
2022-11-08T14:09:17.535Z,1.00
2022-11-08T14:12:00.464Z,1.00
2022-11-08T14:14:42.701Z,1.00
2022-11-08T14:17:37.712Z,1.00
2022-11-08T14:20:28.670Z,1.00
2022-11-08T14:22:59.175Z,1.00
2022-11-08T14:25:31.995Z,1.00
2022-11-08T14:28:00.130Z,1.00
2022-11-08T14:30:29.571Z,1.00
2022-11-08T14:33:17.684Z,1.00
2022-11-08T14:35:56.725Z,1.00
2022-11-08T14:38:25.119Z,1.00
2022-11-08T14:40:58.518Z,1.00
2022-11-08T14:43:28.060Z,1.00
2022-11-08T14:45:58.802Z,1.00
2022-11-08T14:48:31.395Z,1.00
2022-11-08T14:51:01.205Z,1.00
2022-11-08T14:53:32.010Z,1.00
2022-11-08T14:56:18.394Z,1.00
2022-11-08T14:58:48.724Z,1.00
2022-11-08T15:01:21.967Z,1.00
2022-11-08T15:03:57.775Z,1.00
2022-11-08T15:06:33.855Z,1.00
2022-11-08T15:09:04.914Z,1.00
2022-11-08T15:11:36.535Z,1.00
2022-11-08T15:14:08.070Z,1.00
2022-11-08T15:16:42.279Z,1.00
2022-11-08T15:19:30.370Z,1.00
2022-11-08T15:22:00.114Z,1.00
2022-11-08T15:24:36.480Z,1.00
2022-11-08T15:27:16.385Z,1.00
2022-11-08T15:29:53.667Z,1.00
2022-11-08T15:32:23.251Z,1.00
2022-11-08T15:34:56.819Z,1.00
2022-11-08T15:37:34.828Z,1.00
2022-11-08T15:40:05.773Z,1.00
2022-11-08T15:42:38.450Z,1.00
2022-11-08T15:45:25.939Z,1.00
2022-11-08T15:48:02.567Z,1.00
2022-11-08T15:50:33.975Z,1.00
2022-11-08T15:53:04.860Z,1.00
2022-11-08T15:55:38.414Z,1.00
2022-11-08T15:58:14.900Z,1.00
2022-11-08T16:00:47.976Z,1.00
2022-11-08T16:03:16.362Z,1.00
2022-11-08T16:05:45.751Z,1.00
2022-11-08T16:08:19.808Z,1.00
2022-11-08T16:10:51.637Z,1.00
2022-11-08T16:13:25.167Z,1.00
2022-11-08T16:15:53.243Z,1.00
2022-11-08T16:18:21.617Z,1.00
2022-11-08T16:20:51.975Z,1.00
2022-11-08T16:23:20.038Z,1.00
2022-11-08T16:25:51.695Z,1.00
2022-11-08T16:28:25.008Z,1.00
2022-11-08T16:30:53.599Z,1.00
2022-11-08T16:33:23.774Z,1.00
2022-11-08T16:35:57.499Z,1.00
2022-11-08T16:38:29.343Z,1.00
2022-11-08T16:40:57.576Z,1.00
2022-11-08T16:43:25.748Z,1.00
2022-11-08T16:46:09.415Z,1.00
2022-11-08T16:48:40.506Z,1.00
2022-11-08T16:51:19.172Z,1.00
2022-11-08T16:53:47.624Z,1.00
2022-11-08T16:56:16.360Z,1.00
2022-11-08T16:58:44.959Z,1.00
2022-11-08T17:01:18.246Z,1.00
2022-11-08T17:03:46.319Z,1.00
2022-11-08T17:06:19.103Z,1.00
2022-11-08T17:08:47.757Z,1.00
2022-11-08T17:11:20.021Z,1.00
2022-11-08T17:13:49.093Z,1.00
2022-11-08T17:16:18.678Z,1.00
2022-11-08T17:18:52.272Z,1.00
2022-11-08T17:21:44.637Z,1.00
2022-11-08T17:24:11.458Z,1.00
2022-11-08T17:26:40.819Z,1.00
2022-11-08T17:29:08.921Z,1.00
2022-11-08T17:31:36.890Z,1.00
2022-11-08T17:34:04.936Z,1.00
2022-11-08T17:36:34.279Z,1.00
2022-11-08T17:39:02.357Z,1.00
2022-11-08T17:41:31.632Z,1.00
2022-11-08T17:43:59.718Z,1.00
2022-11-08T17:46:27.646Z,1.00
2022-11-08T17:48:55.670Z,1.00
2022-11-08T17:51:23.669Z,1.00
2022-11-08T17:53:52.953Z,1.00
2022-11-08T17:56:20.883Z,1.00
2022-11-08T17:58:49.000Z,1.00
2022-11-08T18:01:17.691Z,1.00
2022-11-08T18:03:45.808Z,1.00
2022-11-08T18:06:16.456Z,1.00
2022-11-08T18:08:44.928Z,1.00
2022-11-08T18:11:14.237Z,1.00
2022-11-08T18:13:42.334Z,1.00
2022-11-08T18:16:13.549Z,1.00
2022-11-08T18:18:42.668Z,1.00
2022-11-08T18:21:11.151Z,1.00
2022-11-08T18:23:41.731Z,1.00
2022-11-08T18:26:10.292Z,1.00
2022-11-08T18:28:41.370Z,1.00
2022-11-08T18:31:13.286Z,1.00
2022-11-08T18:33:42.388Z,1.00
2022-11-08T18:36:13.466Z,1.00
2022-11-08T18:38:45.150Z,1.00
2022-11-08T18:41:15.839Z,1.00
2022-11-08T18:43:46.020Z,1.00
2022-11-08T18:46:18.908Z,1.00
2022-11-08T18:48:47.558Z,1.00
2022-11-08T18:51:18.450Z,1.00
2022-11-08T18:53:46.655Z,1.00
2022-11-08T18:56:16.152Z,1.00
2022-11-08T18:58:46.583Z,1.00
2022-11-08T19:01:15.637Z,1.00
2022-11-08T19:03:44.079Z,1.00
2022-11-08T19:06:12.105Z,1.00
2022-11-08T19:08:40.212Z,1.00
2022-11-08T19:11:11.489Z,1.00
2022-11-08T19:13:41.677Z,1.00
2022-11-08T19:16:14.748Z,1.00
2022-11-08T19:18:44.082Z,1.00
2022-11-08T19:21:15.993Z,1.00
2022-11-08T19:23:44.214Z,1.00
2022-11-08T19:26:15.841Z,1.00
2022-11-08T19:28:46.142Z,1.00
2022-11-08T19:31:18.957Z,1.00
2022-11-08T19:33:48.307Z,1.00
2022-11-08T19:36:18.958Z,1.00
2022-11-08T19:38:47.329Z,1.00
2022-11-08T19:41:18.361Z,1.00
2022-11-08T19:43:47.813Z,1.00
2022-11-08T19:46:19.803Z,1.00
2022-11-08T19:48:51.114Z,1.00
2022-11-08T19:51:21.971Z,1.00
2022-11-08T19:53:50.660Z,1.00
2022-11-08T19:56:29.203Z,1.00
2022-11-08T19:59:06.788Z,1.00
2022-11-08T20:01:39.653Z,1.00
2022-11-08T20:04:10.386Z,1.00
2022-11-08T20:06:39.015Z,1.00
2022-11-08T20:09:09.219Z,1.00
2022-11-08T20:11:40.351Z,1.00
2022-11-08T20:14:10.245Z,1.00
2022-11-08T20:16:42.801Z,1.00
2022-11-08T20:19:14.443Z,1.00
2022-11-08T20:21:45.864Z,1.00
2022-11-08T20:24:16.397Z,1.00
2022-11-08T20:26:45.063Z,1.00
2022-11-08T20:29:14.682Z,1.00
2022-11-08T20:31:44.232Z,1.00
2022-11-08T20:34:13.461Z,1.00
2022-11-08T20:36:44.127Z,1.00
2022-11-08T20:39:13.834Z,1.00
2022-11-08T20:41:42.175Z,1.00
2022-11-08T20:44:11.624Z,1.00
2022-11-08T20:46:40.246Z,1.00
2022-11-08T20:49:09.805Z,1.00
2022-11-08T20:51:38.251Z,1.00
2022-11-08T20:54:06.456Z,1.00
2022-11-08T20:56:34.529Z,1.00
2022-11-08T20:59:03.330Z,1.00
2022-11-08T21:01:34.172Z,1.00
2022-11-08T21:04:02.487Z,1.00
2022-11-08T21:06:36.045Z,1.00
2022-11-08T21:09:29.984Z,1.00
2022-11-08T21:11:54.456Z,1.00
2022-11-08T21:14:23.543Z,1.00
2022-11-08T21:17:21.359Z,1.00
2022-11-08T21:19:39.966Z,1.00
2022-11-08T21:22:18.714Z,1.00
2022-11-08T21:24:48.815Z,1.00
2022-11-08T21:27:17.954Z,1.00
2022-11-08T21:29:45.977Z,1.00
2022-11-08T21:32:14.181Z,1.00
2022-11-08T21:34:45.610Z,1.00
2022-11-08T21:37:15.722Z,1.00
2022-11-08T21:39:43.816Z,1.00
2022-11-08T21:42:12.012Z,1.00
2022-11-08T21:44:40.028Z,1.00
2022-11-08T21:47:08.060Z,1.00
2022-11-08T21:49:36.067Z,1.00
2022-11-08T21:52:04.437Z,1.00
2022-11-08T21:54:36.796Z,1.00
2022-11-08T21:57:04.970Z,1.00
2022-11-08T21:59:33.007Z,1.00
